createdAt,value
2019-05-05T00:01:15.968Z,3.18
2019-05-05T00:03:50.623Z,3.18
2019-05-05T00:06:19.723Z,3.00
2019-05-05T00:08:48.758Z,2.94
2019-05-05T00:11:35.250Z,2.97
2019-05-05T00:14:17.591Z,3.05
2019-05-05T00:16:57.452Z,3.01
2019-05-05T00:19:32.636Z,3.09
2019-05-05T00:21:57.373Z,3.08
2019-05-05T00:24:26.457Z,3.18
2019-05-05T00:26:55.550Z,3.21
2019-05-05T00:29:25.363Z,3.15
2019-05-05T00:31:54.767Z,3.04
2019-05-05T00:34:24.441Z,3.07
2019-05-05T00:36:55.265Z,3.11
2019-05-05T00:39:25.529Z,2.98
2019-05-05T00:41:55.494Z,2.96
2019-05-05T00:44:24.764Z,2.97
2019-05-05T00:47:18.573Z,3.00
2019-05-05T00:49:49.481Z,3.05
2019-05-05T00:52:18.650Z,3.13
2019-05-05T00:54:47.780Z,3.00
2019-05-05T00:57:16.899Z,2.97
2019-05-05T00:59:46.027Z,2.91
2019-05-05T01:02:36.563Z,2.95
2019-05-05T01:05:25.339Z,2.94
2019-05-05T01:07:54.804Z,2.98
2019-05-05T01:10:24.842Z,3.01
2019-05-05T01:12:54.562Z,3.02
2019-05-05T01:15:25.437Z,2.99
2019-05-05T01:17:55.271Z,3.07
2019-05-05T01:20:25.037Z,3.03
2019-05-05T01:22:55.310Z,2.99
2019-05-05T01:25:25.809Z,3.00
2019-05-05T01:27:55.008Z,2.87
2019-05-05T01:30:29.591Z,2.88
2019-05-05T01:33:05.483Z,2.83
2019-05-05T01:35:35.964Z,2.96
2019-05-05T01:38:10.501Z,2.91
2019-05-05T01:41:01.326Z,2.91
2019-05-05T01:43:30.447Z,2.98
2019-05-05T01:46:00.693Z,2.86
2019-05-05T01:48:29.846Z,2.85
2019-05-05T01:50:59.034Z,2.83
2019-05-05T01:53:28.206Z,2.79
2019-05-05T01:55:57.263Z,2.78
2019-05-05T01:58:26.492Z,2.86
2019-05-05T02:00:55.645Z,3.00
2019-05-05T02:03:25.196Z,3.09
2019-05-05T02:05:55.826Z,2.95
2019-05-05T02:08:24.891Z,3.01
2019-05-05T02:10:54.752Z,2.93
2019-05-05T02:13:25.176Z,2.97
2019-05-05T02:15:55.275Z,2.86
2019-05-05T02:18:25.348Z,2.46
2019-05-05T02:21:05.173Z,2.61
2019-05-05T02:23:35.376Z,2.59
2019-05-05T02:26:07.259Z,2.58
2019-05-05T02:28:45.428Z,2.56
2019-05-05T02:31:48.331Z,1.00
2019-05-05T02:34:17.407Z,2.59
2019-05-05T02:36:46.475Z,2.58
2019-05-05T02:39:16.148Z,2.53
2019-05-05T02:41:45.423Z,2.34
2019-05-05T02:44:15.490Z,2.31
2019-05-05T02:46:49.611Z,2.36
2019-05-05T02:49:18.734Z,2.42
2019-05-05T02:51:48.092Z,2.60
2019-05-05T02:54:19.341Z,2.59
2019-05-05T02:56:50.412Z,2.52
2019-05-05T02:59:49.227Z,2.25
2019-05-05T03:02:21.237Z,2.55
2019-05-05T03:04:50.454Z,2.56
2019-05-05T03:07:19.640Z,2.55
2019-05-05T03:09:49.087Z,2.45
2019-05-05T03:12:18.671Z,2.33
2019-05-05T03:14:47.870Z,0.53
2019-05-05T03:17:17.007Z,2.36
2019-05-05T03:19:46.162Z,2.43
2019-05-05T03:22:15.306Z,2.28
2019-05-05T03:24:44.732Z,2.46
2019-05-05T03:27:14.454Z,2.55
2019-05-05T03:29:44.212Z,2.43
2019-05-05T03:32:16.018Z,2.40
2019-05-05T03:34:45.002Z,2.46
2019-05-05T03:37:14.715Z,2.09
2019-05-05T03:39:47.945Z,2.16
2019-05-05T03:42:49.010Z,2.28
2019-05-05T03:45:34.283Z,2.17
2019-05-05T03:48:04.638Z,2.21
2019-05-05T03:50:34.116Z,2.39
2019-05-05T03:53:04.913Z,2.38
2019-05-05T03:55:34.533Z,2.15
2019-05-05T03:58:04.117Z,2.31
2019-05-05T04:01:23.974Z,2.39
2019-05-05T04:03:54.116Z,2.33
2019-05-05T04:06:37.201Z,2.29
2019-05-05T04:09:08.187Z,2.16
2019-05-05T04:11:37.741Z,2.06
2019-05-05T04:14:08.260Z,2.06
2019-05-05T04:16:43.623Z,2.10
2019-05-05T04:19:13.906Z,2.19
2019-05-05T04:21:44.911Z,2.22
2019-05-05T04:24:14.783Z,2.31
2019-05-05T04:26:44.144Z,2.26
2019-05-05T04:29:13.939Z,2.43
2019-05-05T04:31:46.056Z,2.58
2019-05-05T04:34:16.192Z,2.41
2019-05-05T04:36:45.318Z,2.46
2019-05-05T04:39:14.541Z,2.64
2019-05-05T04:41:44.094Z,2.76
2019-05-05T04:44:14.852Z,2.96
2019-05-05T04:46:45.711Z,3.01
2019-05-05T04:49:33.958Z,3.18
2019-05-05T04:52:05.755Z,3.22
2019-05-05T04:54:48.325Z,3.24
2019-05-05T04:57:17.400Z,2.92
2019-05-05T04:59:47.485Z,2.86
2019-05-05T05:02:35.549Z,3.06
2019-05-05T05:05:20.680Z,3.18
2019-05-05T05:07:49.806Z,3.01
2019-05-05T05:10:19.080Z,3.21
2019-05-05T05:12:49.945Z,2.35
2019-05-05T05:15:19.165Z,3.44
2019-05-05T05:17:54.978Z,4.07
2019-05-05T05:20:24.681Z,4.40
2019-05-05T05:22:54.436Z,4.45
2019-05-05T05:25:24.068Z,4.43
2019-05-05T05:27:54.365Z,4.83
2019-05-05T05:30:24.236Z,5.48
2019-05-05T05:32:53.933Z,5.74
2019-05-05T05:35:24.413Z,5.96
2019-05-05T05:37:57.627Z,6.13
2019-05-05T05:41:04.243Z,6.43
2019-05-05T05:43:43.960Z,6.91
2019-05-05T05:46:29.479Z,7.70
2019-05-05T05:49:24.144Z,7.48
2019-05-05T05:51:53.882Z,6.27
2019-05-05T05:54:23.540Z,5.49
2019-05-05T05:56:53.823Z,5.38
2019-05-05T05:59:24.681Z,5.16
2019-05-05T06:02:08.702Z,5.19
2019-05-05T06:04:25.862Z,5.21
2019-05-05T06:06:55.236Z,5.78
2019-05-05T06:09:24.391Z,5.34
2019-05-05T06:11:54.223Z,5.50
2019-05-05T06:14:24.670Z,5.59
2019-05-05T06:16:54.127Z,5.56
2019-05-05T06:19:24.608Z,6.28
2019-05-05T06:21:54.369Z,5.96
2019-05-05T06:24:24.635Z,6.19
2019-05-05T06:26:54.712Z,6.46
2019-05-05T06:29:24.007Z,6.60
2019-05-05T06:31:53.769Z,7.19
2019-05-05T06:34:24.400Z,7.41
2019-05-05T06:36:53.843Z,6.97
2019-05-05T06:39:24.141Z,6.59
2019-05-05T06:42:10.809Z,6.00
2019-05-05T06:44:53.416Z,6.67
2019-05-05T06:47:26.031Z,7.34
2019-05-05T06:49:55.158Z,7.41
2019-05-05T06:52:24.826Z,7.53
2019-05-05T06:54:55.038Z,8.17
2019-05-05T06:57:24.179Z,8.06
2019-05-05T06:59:54.386Z,7.50
2019-05-05T07:02:23.872Z,8.14
2019-05-05T07:04:54.632Z,8.02
2019-05-05T07:07:23.935Z,8.19
2019-05-05T07:09:54.292Z,8.50
2019-05-05T07:12:24.157Z,9.43
2019-05-05T07:14:54.805Z,9.32
2019-05-05T07:17:24.518Z,9.74
2019-05-05T07:19:54.357Z,9.01
2019-05-05T07:22:24.440Z,8.63
2019-05-05T07:24:54.959Z,9.34
2019-05-05T07:27:24.442Z,9.61
2019-05-05T07:29:54.133Z,9.82
2019-05-05T07:32:24.525Z,8.50
2019-05-05T07:35:21.738Z,8.28
2019-05-05T07:37:50.812Z,7.68
2019-05-05T07:40:19.858Z,7.83
2019-05-05T07:42:48.886Z,8.37
2019-05-05T07:45:22.838Z,7.92
2019-05-05T07:47:48.747Z,8.00
2019-05-05T07:50:28.443Z,7.31
2019-05-05T07:52:48.646Z,8.52
2019-05-05T07:55:17.763Z,9.33
2019-05-05T07:57:46.887Z,9.03
2019-05-05T08:00:16.089Z,9.58
2019-05-05T08:02:45.398Z,9.49
2019-05-05T08:05:15.023Z,9.12
2019-05-05T08:07:44.777Z,9.79
2019-05-05T08:10:13.972Z,9.41
2019-05-05T08:12:43.598Z,8.43
2019-05-05T08:15:14.781Z,8.59
2019-05-05T08:18:04.614Z,8.11
2019-05-05T08:20:37.345Z,7.57
2019-05-05T08:23:08.756Z,7.78
2019-05-05T08:26:04.574Z,7.51
2019-05-05T08:28:43.467Z,7.92
2019-05-05T08:31:20.601Z,8.05
2019-05-05T08:33:49.762Z,9.62
2019-05-05T08:36:18.849Z,9.89
2019-05-05T08:38:48.488Z,10.64
2019-05-05T08:41:17.531Z,10.63
2019-05-05T08:43:46.894Z,10.24
2019-05-05T08:46:16.002Z,9.35
2019-05-05T08:48:45.147Z,9.07
2019-05-05T08:51:14.312Z,8.80
2019-05-05T08:53:47.905Z,9.28
2019-05-05T08:56:14.717Z,8.74
2019-05-05T08:58:43.951Z,8.25
2019-05-05T09:01:14.937Z,8.71
2019-05-05T09:03:44.999Z,8.82
2019-05-05T09:06:14.047Z,8.96
2019-05-05T09:08:44.188Z,9.31
2019-05-05T09:11:14.051Z,10.04
2019-05-05T09:13:44.656Z,9.46
2019-05-05T09:16:14.557Z,11.01
2019-05-05T09:19:04.935Z,11.02
2019-05-05T09:21:34.641Z,10.83
2019-05-05T09:24:22.470Z,10.75
2019-05-05T09:27:14.018Z,9.79
2019-05-05T09:29:44.060Z,9.77
2019-05-05T09:32:13.918Z,9.38
2019-05-05T09:34:43.694Z,9.19
2019-05-05T09:37:14.381Z,8.95
2019-05-05T09:39:43.842Z,9.40
2019-05-05T09:42:14.564Z,9.04
2019-05-05T09:44:43.967Z,9.34
2019-05-05T09:47:13.816Z,8.99
2019-05-05T09:49:44.625Z,9.32
2019-05-05T09:52:14.122Z,9.36
2019-05-05T09:54:43.842Z,9.55
2019-05-05T09:57:14.504Z,9.38
2019-05-05T09:59:44.324Z,9.08
2019-05-05T10:02:13.481Z,8.96
2019-05-05T10:04:44.142Z,9.40
2019-05-05T10:07:13.948Z,9.62
2019-05-05T10:09:43.755Z,9.71
2019-05-05T10:12:13.011Z,9.52
2019-05-05T10:14:42.047Z,9.22
2019-05-05T10:17:11.126Z,9.09
2019-05-05T10:19:40.140Z,9.23
2019-05-05T10:22:09.226Z,9.99
2019-05-05T10:24:47.796Z,9.40
2019-05-05T10:27:16.874Z,9.56
2019-05-05T10:29:45.901Z,9.91
2019-05-05T10:32:15.066Z,10.28
2019-05-05T10:34:45.733Z,12.40
2019-05-05T10:37:14.792Z,12.25
2019-05-05T10:39:49.208Z,11.90
2019-05-05T10:42:19.890Z,12.19
2019-05-05T10:44:48.956Z,11.35
2019-05-05T10:47:18.065Z,11.26
2019-05-05T10:49:47.097Z,12.04
2019-05-05T10:52:16.198Z,13.44
2019-05-05T10:54:45.224Z,12.86
2019-05-05T10:57:16.625Z,12.59
2019-05-05T10:59:45.128Z,10.57
2019-05-05T11:02:14.257Z,9.47
2019-05-05T11:04:44.152Z,9.27
2019-05-05T11:07:14.610Z,9.02
2019-05-05T11:09:44.432Z,8.02
2019-05-05T11:12:14.307Z,7.81
2019-05-05T11:14:44.315Z,7.60
2019-05-05T11:17:15.381Z,7.68
2019-05-05T11:19:44.506Z,7.78
2019-05-05T11:22:14.768Z,7.89
2019-05-05T11:24:55.223Z,7.89
2019-05-05T11:27:16.397Z,8.05
2019-05-05T11:30:03.985Z,8.44
2019-05-05T11:32:50.840Z,8.83
2019-05-05T11:35:21.517Z,9.04
2019-05-05T11:37:50.582Z,9.33
2019-05-05T11:40:31.701Z,9.26
2019-05-05T11:43:00.828Z,9.84
2019-05-05T11:45:31.250Z,10.08
2019-05-05T11:48:00.515Z,9.00
2019-05-05T11:50:29.553Z,9.42
2019-05-05T11:52:58.647Z,10.15
2019-05-05T11:55:27.709Z,10.83
2019-05-05T11:57:57.753Z,12.65
2019-05-05T12:00:26.798Z,12.19
2019-05-05T12:02:55.908Z,12.11
2019-05-05T12:05:25.012Z,11.41
2019-05-05T12:07:54.208Z,10.72
2019-05-05T12:10:40.651Z,9.78
2019-05-05T12:13:10.830Z,9.59
2019-05-05T12:15:44.612Z,9.57
2019-05-05T12:18:14.405Z,9.26
2019-05-05T12:20:44.196Z,9.40
2019-05-05T12:23:13.289Z,9.68
2019-05-05T12:25:57.000Z,10.95
2019-05-05T12:28:31.702Z,11.26
2019-05-05T12:31:03.573Z,10.76
2019-05-05T12:33:33.616Z,10.03
2019-05-05T12:36:05.227Z,10.55
2019-05-05T12:38:34.814Z,11.06
2019-05-05T12:41:04.468Z,11.15
2019-05-05T12:43:34.117Z,11.60
2019-05-05T12:46:16.481Z,10.46
2019-05-05T12:48:45.945Z,10.01
2019-05-05T12:51:15.030Z,10.32
2019-05-05T12:53:44.122Z,11.60
2019-05-05T12:56:14.755Z,12.06
2019-05-05T12:58:44.092Z,12.97
2019-05-05T13:01:19.032Z,12.39
2019-05-05T13:03:48.167Z,11.87
2019-05-05T13:06:17.369Z,12.38
2019-05-05T13:08:46.567Z,11.39
2019-05-05T13:11:15.693Z,12.55
2019-05-05T13:13:44.781Z,14.25
2019-05-05T13:16:13.972Z,13.63
2019-05-05T13:18:43.003Z,13.83
2019-05-05T13:21:20.616Z,12.36
2019-05-05T13:24:14.772Z,11.82
2019-05-05T13:26:53.688Z,11.93
2019-05-05T13:29:24.577Z,12.49
2019-05-05T13:31:54.455Z,11.01
2019-05-05T13:34:25.016Z,11.13
2019-05-05T13:36:54.129Z,10.84
2019-05-05T13:39:24.715Z,11.21
2019-05-05T13:41:54.138Z,10.46
2019-05-05T13:44:48.042Z,10.69
2019-05-05T13:47:17.615Z,10.93
2019-05-05T13:49:46.791Z,11.67
2019-05-05T13:52:15.894Z,10.95
2019-05-05T13:54:46.577Z,11.48
2019-05-05T13:57:15.943Z,11.29
2019-05-05T13:59:45.264Z,11.71
2019-05-05T14:02:15.355Z,12.07
2019-05-05T14:04:44.627Z,12.24
2019-05-05T14:07:13.759Z,12.34
2019-05-05T14:09:44.208Z,12.19
2019-05-05T14:12:14.623Z,12.11
2019-05-05T14:14:44.109Z,11.87
2019-05-05T14:17:14.716Z,11.05
2019-05-05T14:19:44.628Z,11.14
2019-05-05T14:22:15.124Z,11.27
2019-05-05T14:24:48.170Z,11.53
2019-05-05T14:27:17.267Z,11.73
2019-05-05T14:29:55.079Z,11.83
2019-05-05T14:32:28.805Z,12.06
2019-05-05T14:35:11.028Z,11.69
2019-05-05T14:37:44.456Z,10.84
2019-05-05T14:40:13.649Z,10.68
2019-05-05T14:42:44.825Z,11.40
2019-05-05T14:45:15.362Z,11.19
2019-05-05T14:47:44.509Z,11.43
2019-05-05T14:50:13.612Z,12.03
2019-05-05T14:52:44.084Z,11.72
2019-05-05T14:55:14.038Z,12.37
2019-05-05T14:57:46.079Z,11.67
2019-05-05T15:00:17.680Z,11.58
2019-05-05T15:02:47.500Z,11.40
2019-05-05T15:05:44.389Z,10.49
2019-05-05T15:08:35.593Z,10.78
2019-05-05T15:11:07.514Z,10.71
2019-05-05T15:13:37.018Z,10.64
2019-05-05T15:16:09.974Z,10.99
2019-05-05T15:18:38.452Z,10.74
2019-05-05T15:21:08.178Z,10.90
2019-05-05T15:23:37.413Z,11.65
2019-05-05T15:26:08.146Z,11.51
2019-05-05T15:28:37.275Z,11.69
2019-05-05T15:31:06.358Z,11.51
2019-05-05T15:33:35.429Z,10.94
2019-05-05T15:36:04.629Z,10.86
2019-05-05T15:38:34.839Z,10.88
2019-05-05T15:41:04.150Z,10.99
2019-05-05T15:43:33.580Z,10.64
2019-05-05T15:46:04.449Z,10.03
2019-05-05T15:48:33.730Z,9.72
2019-05-05T15:51:04.198Z,9.58
2019-05-05T15:53:33.570Z,9.73
2019-05-05T15:56:04.376Z,9.58
2019-05-05T15:58:34.241Z,9.38
2019-05-05T16:01:03.841Z,9.34
2019-05-05T16:03:32.968Z,9.35
2019-05-05T16:06:03.781Z,9.67
2019-05-05T16:08:33.950Z,9.64
2019-05-05T16:11:03.753Z,9.56
2019-05-05T16:13:35.067Z,9.69
2019-05-05T16:16:34.882Z,9.78
2019-05-05T16:19:14.009Z,9.67
2019-05-05T16:21:54.674Z,9.61
2019-05-05T16:24:25.889Z,9.83
2019-05-05T16:26:55.575Z,9.91
2019-05-05T16:29:24.692Z,9.97
2019-05-05T16:31:54.779Z,9.76
2019-05-05T16:34:23.883Z,9.90
2019-05-05T16:36:56.655Z,10.02
2019-05-05T16:39:25.661Z,10.51
2019-05-05T16:41:55.765Z,10.71
2019-05-05T16:44:24.953Z,10.73
2019-05-05T16:46:54.114Z,10.67
2019-05-05T16:49:23.256Z,10.74
2019-05-05T16:52:01.391Z,10.66
2019-05-05T16:54:36.155Z,10.62
2019-05-05T16:57:05.848Z,10.53
2019-05-05T16:59:36.154Z,10.44
2019-05-05T17:02:05.223Z,10.21
2019-05-05T17:04:35.640Z,10.13
2019-05-05T17:07:04.895Z,10.33
2019-05-05T17:09:34.441Z,10.61
2019-05-05T17:12:10.194Z,10.81
2019-05-05T17:15:08.569Z,10.75
2019-05-05T17:17:49.952Z,10.68
2019-05-05T17:20:21.955Z,10.48
2019-05-05T17:22:55.162Z,10.70
2019-05-05T17:25:24.695Z,10.87
2019-05-05T17:27:54.571Z,10.95
2019-05-05T17:30:27.017Z,10.94
2019-05-05T17:32:54.637Z,10.93
2019-05-05T17:35:24.060Z,10.87
2019-05-05T17:37:53.918Z,10.90
2019-05-05T17:40:44.825Z,10.68
2019-05-05T17:43:27.607Z,10.61
2019-05-05T17:46:05.280Z,10.49
2019-05-05T17:48:46.107Z,10.37
2019-05-05T17:51:34.150Z,10.19
2019-05-05T17:54:12.773Z,9.59
2019-05-05T17:56:42.104Z,9.70
2019-05-05T17:59:11.291Z,9.69
2019-05-05T18:01:40.409Z,9.48
2019-05-05T18:04:10.665Z,9.42
2019-05-05T18:06:47.426Z,9.69
2019-05-05T18:09:24.209Z,9.44
2019-05-05T18:12:17.177Z,9.33
2019-05-05T18:14:46.439Z,9.24
2019-05-05T18:17:15.997Z,9.08
2019-05-05T18:19:45.207Z,9.02
2019-05-05T18:22:15.649Z,9.03
2019-05-05T18:24:44.801Z,8.91
2019-05-05T18:27:14.188Z,8.52
2019-05-05T18:29:43.710Z,8.24
2019-05-05T18:32:13.867Z,8.18
2019-05-05T18:34:43.025Z,8.31
2019-05-05T18:37:12.108Z,8.21
2019-05-05T18:39:41.338Z,8.15
2019-05-05T18:42:17.670Z,8.16
2019-05-05T18:44:49.050Z,7.94
2019-05-05T18:47:19.219Z,7.87
2019-05-05T18:49:48.414Z,7.69
2019-05-05T18:52:18.788Z,7.71
2019-05-05T18:54:47.931Z,7.77
2019-05-05T18:57:17.043Z,7.58
2019-05-05T18:59:46.212Z,7.60
2019-05-05T19:02:37.126Z,7.49
2019-05-05T19:05:26.027Z,7.48
2019-05-05T19:08:01.957Z,7.49
2019-05-05T19:10:31.223Z,7.35
2019-05-05T19:13:00.379Z,7.42
2019-05-05T19:15:29.497Z,7.41
2019-05-05T19:17:58.602Z,7.44
2019-05-05T19:20:36.748Z,7.44
2019-05-05T19:23:06.099Z,7.38
2019-05-05T19:25:35.868Z,7.29
2019-05-05T19:28:05.239Z,7.30
2019-05-05T19:30:36.184Z,7.33
2019-05-05T19:33:05.570Z,7.25
2019-05-05T19:35:44.187Z,7.21
2019-05-05T19:38:05.652Z,7.25
2019-05-05T19:40:36.092Z,7.25
2019-05-05T19:43:05.291Z,7.38
2019-05-05T19:45:34.643Z,7.19
2019-05-05T19:48:05.899Z,7.01
2019-05-05T19:50:40.534Z,6.89
2019-05-05T19:53:24.607Z,7.09
2019-05-05T19:55:54.813Z,7.19
2019-05-05T19:58:24.126Z,7.19
2019-05-05T20:00:57.293Z,7.19
2019-05-05T20:03:26.502Z,7.19
2019-05-05T20:05:55.762Z,7.15
2019-05-05T20:08:39.013Z,7.12
2019-05-05T20:10:56.095Z,7.13
2019-05-05T20:13:25.343Z,7.09
2019-05-05T20:16:16.198Z,7.09
2019-05-05T20:18:45.343Z,7.13
2019-05-05T20:21:15.930Z,6.78
2019-05-05T20:23:45.139Z,6.89
2019-05-05T20:26:14.596Z,7.02
2019-05-05T20:28:43.701Z,7.11
2019-05-05T20:31:14.215Z,7.12
2019-05-05T20:33:50.520Z,7.11
2019-05-05T20:36:23.752Z,7.11
2019-05-05T20:38:54.931Z,7.00
2019-05-05T20:41:25.399Z,6.70
2019-05-05T20:43:54.564Z,6.71
2019-05-05T20:46:23.881Z,6.52
2019-05-05T20:48:54.519Z,6.41
2019-05-05T20:51:24.260Z,6.39
2019-05-05T20:53:54.196Z,6.32
2019-05-05T20:56:23.542Z,6.29
2019-05-05T20:58:54.734Z,6.22
2019-05-05T21:01:24.598Z,6.18
2019-05-05T21:03:54.023Z,6.68
2019-05-05T21:06:24.557Z,6.39
2019-05-05T21:08:53.862Z,6.16
2019-05-05T21:11:24.677Z,6.03
2019-05-05T21:13:54.422Z,5.80
2019-05-05T21:16:23.781Z,5.77
2019-05-05T21:18:53.941Z,5.66
2019-05-05T21:21:27.050Z,5.65
2019-05-05T21:23:58.118Z,5.57
2019-05-05T21:26:46.340Z,5.46
2019-05-05T21:29:15.875Z,5.50
2019-05-05T21:31:46.333Z,5.40
2019-05-05T21:34:15.480Z,5.39
2019-05-05T21:36:45.036Z,5.31
2019-05-05T21:39:14.867Z,5.24
2019-05-05T21:41:44.133Z,5.07
2019-05-05T21:44:14.750Z,4.60
2019-05-05T21:46:43.984Z,4.67
2019-05-05T21:49:13.728Z,4.59
2019-05-05T21:51:59.226Z,4.59
2019-05-05T21:54:44.817Z,4.52
2019-05-05T21:57:45.367Z,4.44
2019-05-05T22:00:37.441Z,4.40
2019-05-05T22:03:07.157Z,4.29
2019-05-05T22:05:36.675Z,4.25
2019-05-05T22:08:06.650Z,4.20
2019-05-05T22:10:36.128Z,4.31
2019-05-05T22:13:05.306Z,4.07
2019-05-05T22:15:35.791Z,4.26
2019-05-05T22:18:05.012Z,3.95
2019-05-05T22:20:39.769Z,4.14
2019-05-05T22:23:10.381Z,4.24
2019-05-05T22:25:39.611Z,4.30
2019-05-05T22:28:09.283Z,4.29
2019-05-05T22:30:38.465Z,4.31
2019-05-05T22:33:07.659Z,4.34
2019-05-05T22:35:37.387Z,4.36
2019-05-05T22:38:06.650Z,4.34
2019-05-05T22:40:35.871Z,4.36
2019-05-05T22:43:05.308Z,2.21
2019-05-05T22:45:34.564Z,4.25
2019-05-05T22:48:04.682Z,4.11
2019-05-05T22:50:34.139Z,4.09
2019-05-05T22:53:03.451Z,3.97
2019-05-05T22:55:34.407Z,3.90
2019-05-05T22:58:04.118Z,3.86
2019-05-05T23:00:34.830Z,3.61
2019-05-05T23:03:24.540Z,3.78
2019-05-05T23:06:00.184Z,3.56
2019-05-05T23:08:29.421Z,3.33
2019-05-05T23:10:58.814Z,3.37
2019-05-05T23:13:29.730Z,3.44
2019-05-05T23:16:07.064Z,3.41
2019-05-05T23:18:36.162Z,3.33
2019-05-05T23:21:24.676Z,3.33
2019-05-05T23:24:07.716Z,3.18
2019-05-05T23:26:38.180Z,3.39
2019-05-05T23:29:07.384Z,3.38
2019-05-05T23:31:37.942Z,3.42
2019-05-05T23:34:07.116Z,3.33
2019-05-05T23:36:36.312Z,3.38
2019-05-05T23:39:06.770Z,3.22
2019-05-05T23:41:36.634Z,3.36
2019-05-05T23:44:06.060Z,3.21
2019-05-05T23:46:35.229Z,3.29
2019-05-05T23:49:04.511Z,3.37
2019-05-05T23:51:34.740Z,3.29
2019-05-05T23:54:04.376Z,3.35
2019-05-05T23:56:34.949Z,3.32
2019-05-05T23:59:04.458Z,3.35
